sensor_id;sensor_type;location;lat;lon;timestamp;pressure;altitude;pressure_sealevel;temperature;humidity
63552;BME280;49698;48.072;7.800;2022-11-12T00:01:12;100984.69;;;5.79;100.00
63552;BME280;49698;48.072;7.800;2022-11-12T00:03:58;100983.06;;;5.78;100.00
63552;BME280;49698;48.072;7.800;2022-11-12T00:06:45;100986.94;;;5.75;100.00
63552;BME280;49698;48.072;7.800;2022-11-12T00:09:33;100990.84;;;5.73;100.00
63552;BME280;49698;48.072;7.800;2022-11-12T00:12:20;100985.34;;;5.68;100.00
63552;BME280;49698;48.072;7.800;2022-11-12T00:15:07;100986.38;;;5.67;100.00
63552;BME280;49698;48.072;7.800;2022-11-12T00:17:54;100989.47;;;5.63;100.00
63552;BME280;49698;48.072;7.800;2022-11-12T00:20:41;100987.22;;;5.60;100.00
63552;BME280;49698;48.072;7.800;2022-11-12T00:23:27;100990.91;;;5.59;100.00
63552;BME280;49698;48.072;7.800;2022-11-12T00:26:16;100979.84;;;5.56;100.00
63552;BME280;49698;48.072;7.800;2022-11-12T00:29:02;100980.25;;;5.53;100.00
63552;BME280;49698;48.072;7.800;2022-11-12T00:31:49;100984.59;;;5.47;100.00
63552;BME280;49698;48.072;7.800;2022-11-12T00:34:36;100988.72;;;5.43;100.00
63552;BME280;49698;48.072;7.800;2022-11-12T00:37:22;100993.03;;;5.37;100.00
63552;BME280;49698;48.072;7.800;2022-11-12T00:40:10;100988.50;;;5.38;100.00
63552;BME280;49698;48.072;7.800;2022-11-12T00:42:58;100995.91;;;5.36;100.00
63552;BME280;49698;48.072;7.800;2022-11-12T00:45:45;100990.19;;;5.32;100.00
63552;BME280;49698;48.072;7.800;2022-11-12T00:48:31;100996.31;;;5.33;100.00
63552;BME280;49698;48.072;7.800;2022-11-12T00:51:18;101003.09;;;5.35;100.00
63552;BME280;49698;48.072;7.800;2022-11-12T00:54:05;101002.47;;;5.33;100.00
63552;BME280;49698;48.072;7.800;2022-11-12T00:56:52;100991.00;;;5.33;100.00
63552;BME280;49698;48.072;7.800;2022-11-12T00:59:40;100997.97;;;5.34;100.00
63552;BME280;49698;48.072;7.800;2022-11-12T01:02:26;101000.84;;;5.32;100.00
63552;BME280;49698;48.072;7.800;2022-11-12T01:05:13;100995.72;;;5.31;100.00
63552;BME280;49698;48.072;7.800;2022-11-12T01:08:00;101000.44;;;5.29;100.00
63552;BME280;49698;48.072;7.800;2022-11-12T01:10:46;101001.66;;;5.26;100.00
63552;BME280;49698;48.072;7.800;2022-11-12T01:13:33;101007.22;;;5.25;100.00
63552;BME280;49698;48.072;7.800;2022-11-12T01:16:26;101007.84;;;5.27;100.00
63552;BME280;49698;48.072;7.800;2022-11-12T01:19:13;101002.91;;;5.24;100.00
63552;BME280;49698;48.072;7.800;2022-11-12T01:22:00;101005.38;;;5.19;100.00
63552;BME280;49698;48.072;7.800;2022-11-12T01:24:46;101005.81;;;5.15;100.00
63552;BME280;49698;48.072;7.800;2022-11-12T01:27:33;101000.47;;;5.15;100.00
63552;BME280;49698;48.072;7.800;2022-11-12T01:30:20;100999.44;;;5.17;100.00
63552;BME280;49698;48.072;7.800;2022-11-12T01:33:08;101002.09;;;5.17;100.00
63552;BME280;49698;48.072;7.800;2022-11-12T01:35:57;100996.59;;;5.11;100.00
63552;BME280;49698;48.072;7.800;2022-11-12T01:38:44;100989.19;;;5.07;100.00
63552;BME280;49698;48.072;7.800;2022-11-12T01:41:34;100988.38;;;5.06;100.00
63552;BME280;49698;48.072;7.800;2022-11-12T01:44:23;100990.84;;;5.01;100.00
63552;BME280;49698;48.072;7.800;2022-11-12T01:47:13;100983.25;;;4.98;100.00
63552;BME280;49698;48.072;7.800;2022-11-12T01:50:13;100980.81;;;4.97;100.00
63552;BME280;49698;48.072;7.800;2022-11-12T01:53:05;100977.94;;;4.98;100.00
63552;BME280;49698;48.072;7.800;2022-11-12T01:55:54;100974.88;;;5.01;100.00
63552;BME280;49698;48.072;7.800;2022-11-12T01:58:42;100978.97;;;5.04;100.00
63552;BME280;49698;48.072;7.800;2022-11-12T02:01:29;100966.06;;;5.07;100.00
63552;BME280;49698;48.072;7.800;2022-11-12T02:04:16;100974.63;;;5.09;100.00
63552;BME280;49698;48.072;7.800;2022-11-12T02:07:05;100977.31;;;5.09;100.00
63552;BME280;49698;48.072;7.800;2022-11-12T02:09:53;100979.56;;;5.06;100.00
63552;BME280;49698;48.072;7.800;2022-11-12T02:12:40;100972.19;;;5.01;100.00
63552;BME280;49698;48.072;7.800;2022-11-12T02:15:44;100977.13;;;4.98;100.00
63552;BME280;49698;48.072;7.800;2022-11-12T02:18:31;100975.50;;;4.97;100.00
63552;BME280;49698;48.072;7.800;2022-11-12T02:21:19;100973.84;;;4.89;100.00
63552;BME280;49698;48.072;7.800;2022-11-12T02:24:30;100974.25;;;4.79;100.00
63552;BME280;49698;48.072;7.800;2022-11-12T02:27:17;100976.72;;;4.74;100.00
63552;BME280;49698;48.072;7.800;2022-11-12T02:30:05;100975.28;;;4.72;100.00
63552;BME280;49698;48.072;7.800;2022-11-12T02:32:52;100988.81;;;4.70;100.00
63552;BME280;49698;48.072;7.800;2022-11-12T02:35:39;100983.31;;;4.65;100.00
63552;BME280;49698;48.072;7.800;2022-11-12T02:38:27;100985.56;;;4.61;100.00
63552;BME280;49698;48.072;7.800;2022-11-12T02:41:14;100982.66;;;4.56;100.00
63552;BME280;49698;48.072;7.800;2022-11-12T02:44:01;100985.13;;;4.58;100.00
63552;BME280;49698;48.072;7.800;2022-11-12T02:46:47;100973.66;;;4.57;100.00
63552;BME280;49698;48.072;7.800;2022-11-12T02:49:34;100973.25;;;4.60;100.00
63552;BME280;49698;48.072;7.800;2022-11-12T02:52:21;100973.25;;;4.60;100.00
63552;BME280;49698;48.072;7.800;2022-11-12T02:55:11;100973.88;;;4.62;100.00
63552;BME280;49698;48.072;7.800;2022-11-12T02:57:58;100969.56;;;4.61;100.00
63552;BME280;49698;48.072;7.800;2022-11-12T03:00:45;100968.34;;;4.57;100.00
63552;BME280;49698;48.072;7.800;2022-11-12T03:03:32;100963.41;;;4.54;100.00
63552;BME280;49698;48.072;7.800;2022-11-12T03:06:19;100961.16;;;4.51;100.00
63552;BME280;49698;48.072;7.800;2022-11-12T03:09:05;100957.91;;;4.49;100.00
63552;BME280;49698;48.072;7.800;2022-11-12T03:11:53;100962.19;;;4.50;100.00
63552;BME280;49698;48.072;7.800;2022-11-12T03:14:40;100965.28;;;4.54;100.00
63552;BME280;49698;48.072;7.800;2022-11-12T03:17:27;100973.25;;;4.54;100.00
63552;BME280;49698;48.072;7.800;2022-11-12T03:20:14;100964.47;;;4.53;100.00
63552;BME280;49698;48.072;7.800;2022-11-12T03:23:03;100965.28;;;4.54;100.00
63552;BME280;49698;48.072;7.800;2022-11-12T03:25:50;100956.47;;;4.53;100.00
63552;BME280;49698;48.072;7.800;2022-11-12T03:28:38;100958.09;;;4.54;100.00
63552;BME280;49698;48.072;7.800;2022-11-12T03:31:25;100955.44;;;4.54;100.00
63552;BME280;49698;48.072;7.800;2022-11-12T03:34:11;100958.69;;;4.56;100.00
63552;BME280;49698;48.072;7.800;2022-11-12T03:36:58;100952.38;;;4.57;100.00
63552;BME280;49698;48.072;7.800;2022-11-12T03:39:45;100952.78;;;4.54;100.00
63552;BME280;49698;48.072;7.800;2022-11-12T03:42:32;100948.47;;;4.53;100.00
63552;BME280;49698;48.072;7.800;2022-11-12T03:45:21;100948.25;;;4.55;100.00
63552;BME280;49698;48.072;7.800;2022-11-12T03:48:08;100955.03;;;4.57;100.00
63552;BME280;49698;48.072;7.800;2022-11-12T03:50:56;100946.00;;;4.58;100.00
63552;BME280;49698;48.072;7.800;2022-11-12T03:53:43;100935.34;;;4.58;100.00
63552;BME280;49698;48.072;7.800;2022-11-12T03:56:30;100935.34;;;4.58;100.00
63552;BME280;49698;48.072;7.800;2022-11-12T03:59:17;100939.06;;;4.57;100.00
63552;BME280;49698;48.072;7.800;2022-11-12T04:02:05;100944.38;;;4.57;100.00
63552;BME280;49698;48.072;7.800;2022-11-12T04:04:52;100938.63;;;4.60;100.00
63552;BME280;49698;48.072;7.800;2022-11-12T04:07:57;100943.34;;;4.65;100.00
63552;BME280;49698;48.072;7.800;2022-11-12T04:11:04;100945.78;;;4.66;100.00
63552;BME280;49698;48.072;7.800;2022-11-12T04:13:51;100943.94;;;4.67;100.00
63552;BME280;49698;48.072;7.800;2022-11-12T04:16:37;100942.09;;;4.68;100.00
63552;BME280;49698;48.072;7.800;2022-11-12T04:19:55;100937.81;;;4.66;100.00
63552;BME280;49698;48.072;7.800;2022-11-12T04:22:59;100934.09;;;4.68;100.00
63552;BME280;49698;48.072;7.800;2022-11-12T04:25:46;100938.22;;;4.63;100.00
63552;BME280;49698;48.072;7.800;2022-11-12T04:28:50;100937.63;;;4.61;100.00
63552;BME280;49698;48.072;7.800;2022-11-12T04:31:55;100938.03;;;4.58;100.00
63552;BME280;49698;48.072;7.800;2022-11-12T04:34:42;100931.25;;;4.56;100.00
63552;BME280;49698;48.072;7.800;2022-11-12T04:37:31;100931.66;;;4.53;100.00
63552;BME280;49698;48.072;7.800;2022-11-12T04:40:29;100940.25;;;4.48;100.00
63552;BME280;49698;48.072;7.800;2022-11-12T04:43:33;100937.41;;;4.43;100.00
63552;BME280;49698;48.072;7.800;2022-11-12T04:46:37;100948.44;;;4.40;100.00
63552;BME280;49698;48.072;7.800;2022-11-12T04:49:23;100938.03;;;4.38;100.00
63552;BME280;49698;48.072;7.800;2022-11-12T04:52:10;100948.44;;;4.40;100.00
63552;BME280;49698;48.072;7.800;2022-11-12T04:54:59;100944.75;;;4.41;100.00
63552;BME280;49698;48.072;7.800;2022-11-12T04:57:45;100943.75;;;4.42;100.00
63552;BME280;49698;48.072;7.800;2022-11-12T05:00:32;100946.41;;;4.42;100.00
63552;BME280;49698;48.072;7.800;2022-11-12T05:03:19;100942.72;;;4.43;100.00
63552;BME280;49698;48.072;7.800;2022-11-12T05:06:06;100943.13;;;4.40;100.00
63552;BME280;49698;48.072;7.800;2022-11-12T05:09:13;100945.59;;;4.35;100.00
63552;BME280;49698;48.072;7.800;2022-11-12T05:12:01;100951.94;;;4.34;100.00
63552;BME280;49698;48.072;7.800;2022-11-12T05:14:47;100942.31;;;4.33;100.00
63552;BME280;49698;48.072;7.800;2022-11-12T05:17:34;100939.63;;;4.33;100.00
63552;BME280;49698;48.072;7.800;2022-11-12T05:20:21;100936.56;;;4.29;100.00
63552;BME280;49698;48.072;7.800;2022-11-12T05:23:08;100940.47;;;4.27;100.00
63552;BME280;49698;48.072;7.800;2022-11-12T05:25:54;100939.84;;;4.25;100.00
63552;BME280;49698;48.072;7.800;2022-11-12T05:28:42;100948.63;;;4.25;100.00
63552;BME280;49698;48.072;7.800;2022-11-12T05:31:29;100947.81;;;4.25;100.00
63552;BME280;49698;48.072;7.800;2022-11-12T05:34:16;100943.94;;;4.27;100.00
63552;BME280;49698;48.072;7.800;2022-11-12T05:37:08;100944.75;;;4.28;100.00
63552;BME280;49698;48.072;7.800;2022-11-12T05:39:55;100946.78;;;4.26;100.00
63552;BME280;49698;48.072;7.800;2022-11-12T05:42:41;100934.91;;;4.22;100.00
63552;BME280;49698;48.072;7.800;2022-11-12T05:45:30;100947.81;;;4.25;100.00
63552;BME280;49698;48.072;7.800;2022-11-12T05:48:17;100951.13;;;4.27;100.00
63552;BME280;49698;48.072;7.800;2022-11-12T05:51:07;100958.72;;;4.30;100.00
63552;BME280;49698;48.072;7.800;2022-11-12T05:53:58;100960.13;;;4.32;100.00
63552;BME280;49698;48.072;7.800;2022-11-12T05:56:45;100952.94;;;4.33;99.98
63552;BME280;49698;48.072;7.800;2022-11-12T05:59:32;100960.75;;;4.34;100.00
63552;BME280;49698;48.072;7.800;2022-11-12T06:02:20;100950.91;;;4.35;99.73
63552;BME280;49698;48.072;7.800;2022-11-12T06:05:07;100955.59;;;4.33;100.00
63552;BME280;49698;48.072;7.800;2022-11-12T06:07:54;100945.19;;;4.31;100.00
63552;BME280;49698;48.072;7.800;2022-11-12T06:10:41;100946.81;;;4.32;100.00
63552;BME280;49698;48.072;7.800;2022-11-12T06:13:28;100950.91;;;4.35;100.00
63552;BME280;49698;48.072;7.800;2022-11-12T06:16:14;100942.53;;;4.38;100.00
63552;BME280;49698;48.072;7.800;2022-11-12T06:19:02;100938.63;;;4.40;100.00
63552;BME280;49698;48.072;7.800;2022-11-12T06:21:49;100938.84;;;4.39;99.97
63552;BME280;49698;48.072;7.800;2022-11-12T06:24:36;100946.41;;;4.35;100.00
63552;BME280;49698;48.072;7.800;2022-11-12T06:27:23;100950.28;;;4.33;100.00
63552;BME280;49698;48.072;7.800;2022-11-12T06:30:10;100946.22;;;4.30;100.00
63552;BME280;49698;48.072;7.800;2022-11-12T06:32:57;100962.38;;;4.29;100.00
63552;BME280;49698;48.072;7.800;2022-11-12T06:35:45;100956.03;;;4.30;100.00
63552;BME280;49698;48.072;7.800;2022-11-12T06:38:33;100951.72;;;4.35;100.00
63552;BME280;49698;48.072;7.800;2022-11-12T06:41:20;100959.91;;;4.40;100.00
63552;BME280;49698;48.072;7.800;2022-11-12T06:44:07;100965.66;;;4.44;100.00
63552;BME280;49698;48.072;7.800;2022-11-12T06:46:54;100959.94;;;4.47;100.00
63552;BME280;49698;48.072;7.800;2022-11-12T06:49:41;100960.97;;;4.46;99.98
63552;BME280;49698;48.072;7.800;2022-11-12T06:52:28;100969.56;;;4.48;100.00
63552;BME280;49698;48.072;7.800;2022-11-12T06:55:15;100968.56;;;4.49;100.00
63552;BME280;49698;48.072;7.800;2022-11-12T06:58:02;100974.25;;;4.53;100.00
63552;BME280;49698;48.072;7.800;2022-11-12T07:00:49;100970.59;;;4.54;99.93
63552;BME280;49698;48.072;7.800;2022-11-12T07:03:36;100971.00;;;4.57;100.00
63552;BME280;49698;48.072;7.800;2022-11-12T07:06:23;100962.41;;;4.62;100.00
63552;BME280;49698;48.072;7.800;2022-11-12T07:09:11;100965.47;;;4.65;99.87
63552;BME280;49698;48.072;7.800;2022-11-12T07:11:58;100964.63;;;4.72;99.51
63552;BME280;49698;48.072;7.800;2022-11-12T07:14:45;100963.63;;;4.73;99.32
63552;BME280;49698;48.072;7.800;2022-11-12T07:17:31;100968.53;;;4.76;99.28
63552;BME280;49698;48.072;7.800;2022-11-12T07:20:18;100961.16;;;4.78;99.42
63552;BME280;49698;48.072;7.800;2022-11-12T07:23:05;100965.25;;;4.80;99.42
63552;BME280;49698;48.072;7.800;2022-11-12T07:25:59;100968.94;;;4.79;99.46
63552;BME280;49698;48.072;7.800;2022-11-12T07:28:47;100971.19;;;4.82;99.55
63552;BME280;49698;48.072;7.800;2022-11-12T07:31:34;100968.94;;;4.86;99.50
63552;BME280;49698;48.072;7.800;2022-11-12T07:34:21;100971.81;;;4.84;99.47
63552;BME280;49698;48.072;7.800;2022-11-12T07:37:09;100980.41;;;4.86;99.20
63552;BME280;49698;48.072;7.800;2022-11-12T07:39:55;100982.03;;;4.87;99.14
63552;BME280;49698;48.072;7.800;2022-11-12T07:42:43;100991.47;;;4.90;99.08
63552;BME280;49698;48.072;7.800;2022-11-12T07:45:30;100990.66;;;4.96;99.13
63552;BME280;49698;48.072;7.800;2022-11-12T07:48:16;100989.00;;;5.02;98.99
63552;BME280;49698;48.072;7.800;2022-11-12T07:51:05;100994.53;;;5.07;98.76
63552;BME280;49698;48.072;7.800;2022-11-12T07:53:53;100990.22;;;5.12;98.72
63552;BME280;49698;48.072;7.800;2022-11-12T07:56:43;101006.63;;;5.16;98.71
63552;BME280;49698;48.072;7.800;2022-11-12T07:59:31;101002.91;;;5.24;98.24
63552;BME280;49698;48.072;7.800;2022-11-12T08:02:18;101013.19;;;5.27;98.08
63552;BME280;49698;48.072;7.800;2022-11-12T08:05:05;101011.91;;;5.29;98.28
63552;BME280;49698;48.072;7.800;2022-11-12T08:07:56;101007.41;;;5.30;98.31
63552;BME280;49698;48.072;7.800;2022-11-12T08:10:43;101006.19;;;5.32;98.08
63552;BME280;49698;48.072;7.800;2022-11-12T08:13:29;101002.06;;;5.36;98.33
63552;BME280;49698;48.072;7.800;2022-11-12T08:16:18;101003.91;;;5.43;98.30
63552;BME280;49698;48.072;7.800;2022-11-12T08:19:05;101004.09;;;5.48;98.13
63552;BME280;49698;48.072;7.800;2022-11-12T08:21:51;101005.31;;;5.52;98.00
63552;BME280;49698;48.072;7.800;2022-11-12T08:24:38;100999.56;;;5.55;97.68
63552;BME280;49698;48.072;7.800;2022-11-12T08:27:25;101011.84;;;5.62;97.96
63552;BME280;49698;48.072;7.800;2022-11-12T08:30:13;101015.50;;;5.68;97.97
63552;BME280;49698;48.072;7.800;2022-11-12T08:33:02;101015.50;;;5.75;97.45
63552;BME280;49698;48.072;7.800;2022-11-12T08:35:49;101020.00;;;5.81;97.70
63552;BME280;49698;48.072;7.800;2022-11-12T08:38:36;101017.91;;;5.83;97.89
63552;BME280;49698;48.072;7.800;2022-11-12T08:41:23;101026.09;;;5.88;97.96
63552;BME280;49698;48.072;7.800;2022-11-12T08:44:10;101022.00;;;5.92;97.89
63552;BME280;49698;48.072;7.800;2022-11-12T08:46:56;101021.38;;;5.97;97.59
63552;BME280;49698;48.072;7.800;2022-11-12T08:49:45;101020.75;;;6.01;97.74
63552;BME280;49698;48.072;7.800;2022-11-12T08:52:32;101020.31;;;6.04;97.51
63552;BME280;49698;48.072;7.800;2022-11-12T08:55:19;101023.59;;;6.06;97.49
63552;BME280;49698;48.072;7.800;2022-11-12T08:58:06;101012.50;;;6.09;97.56
63552;BME280;49698;48.072;7.800;2022-11-12T09:00:54;101019.03;;;6.13;97.92
63552;BME280;49698;48.072;7.800;2022-11-12T09:03:40;101026.19;;;6.20;97.48
63552;BME280;49698;48.072;7.800;2022-11-12T09:06:28;101015.69;;;6.25;97.87
63552;BME280;49698;48.072;7.800;2022-11-12T09:09:15;101022.22;;;6.29;97.40
63552;BME280;49698;48.072;7.800;2022-11-12T09:12:02;101010.31;;;6.31;97.77
63552;BME280;49698;48.072;7.800;2022-11-12T09:14:55;101015.19;;;6.34;97.68
63552;BME280;49698;48.072;7.800;2022-11-12T09:17:44;101007.41;;;6.33;97.81
63552;BME280;49698;48.072;7.800;2022-11-12T09:20:31;101003.50;;;6.35;98.03
63552;BME280;49698;48.072;7.800;2022-11-12T09:23:19;101001.22;;;6.39;98.08
63552;BME280;49698;48.072;7.800;2022-11-12T09:26:06;101008.19;;;6.40;97.89
63552;BME280;49698;48.072;7.800;2022-11-12T09:28:53;101001.97;;;6.46;98.02
63552;BME280;49698;48.072;7.800;2022-11-12T09:31:39;101008.09;;;6.53;97.76
63552;BME280;49698;48.072;7.800;2022-11-12T09:34:26;101008.06;;;6.60;97.61
63552;BME280;49698;48.072;7.800;2022-11-12T09:37:13;101020.75;;;6.65;97.69
63552;BME280;49698;48.072;7.800;2022-11-12T09:40:01;101012.91;;;6.70;97.46
63552;BME280;49698;48.072;7.800;2022-11-12T09:42:51;101016.81;;;6.74;97.15
63552;BME280;49698;48.072;7.800;2022-11-12T09:45:39;101015.91;;;6.80;97.53
63552;BME280;49698;48.072;7.800;2022-11-12T09:48:32;101026.31;;;6.88;96.98
63552;BME280;49698;48.072;7.800;2022-11-12T09:51:24;101026.28;;;6.95;96.90
63552;BME280;49698;48.072;7.800;2022-11-12T09:54:18;101016.34;;;7.02;96.69
63552;BME280;49698;48.072;7.800;2022-11-12T09:57:10;101018.75;;;7.10;96.79
63552;BME280;49698;48.072;7.800;2022-11-12T09:59:58;101022.84;;;7.13;96.67
63552;BME280;49698;48.072;7.800;2022-11-12T10:02:51;101009.00;;;7.16;96.33
63552;BME280;49698;48.072;7.800;2022-11-12T10:05:41;101006.34;;;7.16;96.86
63552;BME280;49698;48.072;7.800;2022-11-12T10:08:38;100992.38;;;7.14;97.02
63552;BME280;49698;48.072;7.800;2022-11-12T10:11:45;101000.97;;;7.16;96.97
63552;BME280;49698;48.072;7.800;2022-11-12T10:15:19;100995.34;;;7.24;96.74
63552;BME280;49698;48.072;7.800;2022-11-12T10:18:32;100990.59;;;7.26;96.73
63552;BME280;49698;48.072;7.800;2022-11-12T10:21:30;100993.28;;;7.26;96.43
63552;BME280;49698;48.072;7.800;2022-11-12T10:24:20;100985.69;;;7.23;96.69
63552;BME280;49698;48.072;7.800;2022-11-12T10:27:12;100986.13;;;7.20;96.82
63552;BME280;49698;48.072;7.800;2022-11-12T10:30:02;100980.63;;;7.15;96.96
63552;BME280;49698;48.072;7.800;2022-11-12T10:32:51;100979.00;;;7.14;97.13
63552;BME280;49698;48.072;7.800;2022-11-12T10:35:38;100988.44;;;7.16;97.17
63552;BME280;49698;48.072;7.800;2022-11-12T10:38:26;100976.47;;;7.19;96.86
63552;BME280;49698;48.072;7.800;2022-11-12T10:41:19;100980.34;;;7.23;96.94
63552;BME280;49698;48.072;7.800;2022-11-12T10:44:12;100974.69;;;7.31;96.71
63552;BME280;49698;48.072;7.800;2022-11-12T10:47:17;100978.94;;;7.39;96.30
63552;BME280;49698;48.072;7.800;2022-11-12T10:50:15;100973.53;;;7.45;96.22
63552;BME280;49698;48.072;7.800;2022-11-12T10:53:05;100969.72;;;7.53;95.97
63552;BME280;49698;48.072;7.800;2022-11-12T10:55:56;100974.03;;;7.54;95.95
63552;BME280;49698;48.072;7.800;2022-11-12T10:58:43;100961.03;;;7.57;95.84
63552;BME280;49698;48.072;7.800;2022-11-12T11:01:31;100961.03;;;7.57;95.56
63552;BME280;49698;48.072;7.800;2022-11-12T11:04:28;100956.28;;;7.59;95.57
63552;BME280;49698;48.072;7.800;2022-11-12T11:07:20;100955.97;;;7.68;95.60
63552;BME280;49698;48.072;7.800;2022-11-12T11:10:22;100946.00;;;7.75;95.23
63552;BME280;49698;48.072;7.800;2022-11-12T11:13:19;100946.25;;;7.85;94.74
63552;BME280;49698;48.072;7.800;2022-11-12T11:16:11;100947.44;;;7.89;94.41
63552;BME280;49698;48.072;7.800;2022-11-12T11:18:59;100936.16;;;7.87;94.28
63552;BME280;49698;48.072;7.800;2022-11-12T11:22:10;100927.19;;;7.93;94.24
63552;BME280;49698;48.072;7.800;2022-11-12T11:25:18;100915.59;;;7.99;94.02
63552;BME280;49698;48.072;7.800;2022-11-12T11:28:15;100917.66;;;7.97;93.91
63552;BME280;49698;48.072;7.800;2022-11-12T11:31:17;100919.16;;;7.93;93.94
63552;BME280;49698;48.072;7.800;2022-11-12T11:34:18;100919.03;;;7.88;94.02
63552;BME280;49698;48.072;7.800;2022-11-12T11:37:21;100898.53;;;7.82;94.23
63552;BME280;49698;48.072;7.800;2022-11-12T11:40:17;100896.09;;;7.80;94.35
63552;BME280;49698;48.072;7.800;2022-11-12T11:43:26;100892.34;;;7.81;94.53
63552;BME280;49698;48.072;7.800;2022-11-12T11:46:25;100899.13;;;7.84;94.66
63552;BME280;49698;48.072;7.800;2022-11-12T11:49:38;100884.94;;;7.83;94.42
63552;BME280;49698;48.072;7.800;2022-11-12T11:52:39;100889.03;;;7.86;94.41
63552;BME280;49698;48.072;7.800;2022-11-12T11:55:37;100883.06;;;7.84;94.37
63552;BME280;49698;48.072;7.800;2022-11-12T11:58:48;100876.66;;;7.85;94.22
63552;BME280;49698;48.072;7.800;2022-11-12T12:01:59;100875.38;;;7.88;94.39
63552;BME280;49698;48.072;7.800;2022-11-12T12:04:57;100876.44;;;7.87;94.30
63552;BME280;49698;48.072;7.800;2022-11-12T12:07:51;100878.31;;;7.86;94.16
63552;BME280;49698;48.072;7.800;2022-11-12T12:10:49;100869.69;;;7.84;94.26
63552;BME280;49698;48.072;7.800;2022-11-12T12:14:01;100871.41;;;7.78;94.69
63552;BME280;49698;48.072;7.800;2022-11-12T12:16:58;100860.34;;;7.75;94.94
63552;BME280;49698;48.072;7.800;2022-11-12T12:19:57;100850.53;;;7.69;95.24
63552;BME280;49698;48.072;7.800;2022-11-12T12:22:49;100858.00;;;7.67;95.26
63552;BME280;49698;48.072;7.800;2022-11-12T12:25:40;100866.59;;;7.69;95.49
63552;BME280;49698;48.072;7.800;2022-11-12T12:28:34;100860.78;;;7.72;95.46
63552;BME280;49698;48.072;7.800;2022-11-12T12:31:25;100851.72;;;7.73;95.25
63552;BME280;49698;48.072;7.800;2022-11-12T12:34:18;100850.66;;;7.74;95.31
63552;BME280;49698;48.072;7.800;2022-11-12T12:37:16;100848.47;;;7.71;95.65
63552;BME280;49698;48.072;7.800;2022-11-12T12:40:14;100850.53;;;7.69;95.76
63552;BME280;49698;48.072;7.800;2022-11-12T12:43:09;100851.59;;;7.68;95.78
63552;BME280;49698;48.072;7.800;2022-11-12T12:45:59;100842.75;;;7.67;95.94
63552;BME280;49698;48.072;7.800;2022-11-12T12:48:47;100837.25;;;7.62;96.10
63552;BME280;49698;48.072;7.800;2022-11-12T12:51:36;100838.66;;;7.65;96.24
63552;BME280;49698;48.072;7.800;2022-11-12T12:57:45;100834.16;;;7.77;95.72
63552;BME280;49698;48.072;7.800;2022-11-12T13:00:35;100831.38;;;7.83;95.40
63552;BME280;49698;48.072;7.800;2022-11-12T13:03:49;100826.59;;;7.85;95.44
63552;BME280;49698;48.072;7.800;2022-11-12T13:06:38;100826.38;;;7.87;95.30
63552;BME280;49698;48.072;7.800;2022-11-12T13:09:26;100825.94;;;7.90;95.35
63552;BME280;49698;48.072;7.800;2022-11-12T13:12:15;100829.78;;;7.94;95.20
63552;BME280;49698;48.072;7.800;2022-11-12T13:15:12;100827.09;;;7.94;95.28
63552;BME280;49698;48.072;7.800;2022-11-12T13:17:59;100823.81;;;7.92;95.05
63552;BME280;49698;48.072;7.800;2022-11-12T13:21:09;100812.31;;;7.92;95.31
63552;BME280;49698;48.072;7.800;2022-11-12T13:24:00;100818.47;;;7.92;95.52
63552;BME280;49698;48.072;7.800;2022-11-12T13:26:55;100816.84;;;7.91;95.68
63552;BME280;49698;48.072;7.800;2022-11-12T13:29:43;100822.22;;;7.91;95.78
63552;BME280;49698;48.072;7.800;2022-11-12T13:32:34;100815.78;;;7.92;95.57
63552;BME280;49698;48.072;7.800;2022-11-12T13:35:26;100825.34;;;7.88;95.98
63552;BME280;49698;48.072;7.800;2022-11-12T13:38:15;100824.28;;;7.89;95.90
63552;BME280;49698;48.072;7.800;2022-11-12T13:41:08;100821.94;;;7.81;96.19
63552;BME280;49698;48.072;7.800;2022-11-12T13:44:04;100818.69;;;7.79;96.51
63552;BME280;49698;48.072;7.800;2022-11-12T13:46:51;100823.22;;;7.78;96.66
63552;BME280;49698;48.072;7.800;2022-11-12T13:49:40;100815.22;;;7.78;96.76
63552;BME280;49698;48.072;7.800;2022-11-12T13:52:28;100808.09;;;7.72;96.78
63552;BME280;49698;48.072;7.800;2022-11-12T13:55:18;100806.56;;;7.65;97.35
63552;BME280;49698;48.072;7.800;2022-11-12T13:58:17;100812.94;;;7.64;97.33
63552;BME280;49698;48.072;7.800;2022-11-12T14:01:06;100800.16;;;7.66;97.14
63552;BME280;49698;48.072;7.800;2022-11-12T14:03:53;100800.75;;;7.68;97.23
63552;BME280;49698;48.072;7.800;2022-11-12T14:06:41;100790.84;;;7.68;97.40
63552;BME280;49698;48.072;7.800;2022-11-12T14:09:42;100794.34;;;7.69;97.28
63552;BME280;49698;48.072;7.800;2022-11-12T14:12:56;100795.97;;;7.70;97.13
63552;BME280;49698;48.072;7.800;2022-11-12T14:15:56;100797.94;;;7.74;97.43
63552;BME280;49698;48.072;7.800;2022-11-12T14:19:11;100794.25;;;7.75;97.28
63552;BME280;49698;48.072;7.800;2022-11-12T14:22:12;100790.97;;;7.73;97.53
63552;BME280;49698;48.072;7.800;2022-11-12T14:25:01;100799.00;;;7.73;97.51
63552;BME280;49698;48.072;7.800;2022-11-12T14:27:50;100796.56;;;7.72;97.65
63552;BME280;49698;48.072;7.800;2022-11-12T14:30:42;100789.78;;;7.69;97.82
63552;BME280;49698;48.072;7.800;2022-11-12T14:33:31;100797.00;;;7.69;97.74
63552;BME280;49698;48.072;7.800;2022-11-12T14:36:18;100794.94;;;7.71;97.77
63552;BME280;49698;48.072;7.800;2022-11-12T14:39:05;100794.78;;;7.66;97.68
63552;BME280;49698;48.072;7.800;2022-11-12T14:41:55;100791.75;;;7.62;98.49
63552;BME280;49698;48.072;7.800;2022-11-12T14:44:44;100787.22;;;7.63;98.33
63552;BME280;49698;48.072;7.800;2022-11-12T14:47:30;100790.94;;;7.62;98.53
63552;BME280;49698;48.072;7.800;2022-11-12T14:50:21;100782.34;;;7.59;98.67
63552;BME280;49698;48.072;7.800;2022-11-12T14:53:13;100786.88;;;7.59;98.70
63552;BME280;49698;48.072;7.800;2022-11-12T14:56:06;100779.66;;;7.59;98.58
63552;BME280;49698;48.072;7.800;2022-11-12T14:58:54;100774.31;;;7.59;98.73
63552;BME280;49698;48.072;7.800;2022-11-12T15:02:05;100769.19;;;7.58;98.69